Keefeton, Oklahoma
Current Conditions -  °F | °C
As of 2:53 PM on Friday 19 Dec 2014 (Local Time) from KMKO Reporting Station
Haze Haze  
Wind Chill: 38°   Ceiling: 600
Heat Index: 42°   Visibility: 4mi
Dew Point: 39°   Wind: 7mph
Humidity: 89%   Direction: 350°N
Pressure: 30.21"   Gusts: NA
Location:  35.6818°N, 95.3578°W
Report Text: KMKO 192053Z AUTO 35006KT 4SM BR OVC006 06/04 A3021 RMK AO2 SLP230 T00560039 56015
Loading
Personal Weather Stations






























Interactive Weather Map New forecast layout! Learn more

10-Day Weather Forecast

Advertisements
Track Severe Weather on mobile